createdAt,value
2018-04-22T08:13:18.101Z,40.10
2018-04-22T08:14:11.509Z,40.30
2018-04-22T08:15:05.665Z,40.50
2018-04-22T08:15:58.953Z,40.40
2018-04-22T08:16:52.171Z,40.40
2018-04-22T08:17:46.136Z,40.60
2018-04-22T08:18:39.301Z,40.60
2018-04-22T08:19:32.489Z,40.50
2018-04-22T08:20:25.693Z,40.60
2018-04-22T08:21:18.862Z,40.70
2018-04-22T08:22:12.034Z,40.80
2018-04-22T08:23:05.241Z,40.80
2018-04-22T08:23:58.418Z,40.70
2018-04-22T08:24:51.604Z,40.80
2018-04-22T08:25:45.545Z,41.00
2018-04-22T08:26:38.738Z,40.90
2018-04-22T08:27:31.938Z,41.00
2018-04-22T08:28:25.236Z,41.10
2018-04-22T08:29:19.197Z,41.10
2018-04-22T08:30:13.234Z,41.10
2018-04-22T08:31:06.424Z,41.20
2018-04-22T08:31:59.657Z,41.20
2018-04-22T08:32:53.614Z,41.20
2018-04-22T08:33:47.593Z,41.70
2018-04-22T08:34:40.785Z,41.10
2018-04-22T08:35:33.964Z,41.20
2018-04-22T08:36:27.950Z,41.10
2018-04-22T08:37:21.187Z,41.10
2018-04-22T08:38:15.169Z,41.30
2018-04-22T08:39:08.346Z,41.20
2018-04-22T08:40:01.661Z,41.20
2018-04-22T08:40:55.742Z,41.20
2018-04-22T08:41:49.018Z,41.20
2018-04-22T08:42:47.692Z,41.10
2018-04-22T08:43:46.326Z,41.00
2018-04-22T08:44:45.103Z,41.20
2018-04-22T08:45:43.868Z,41.10
2018-04-22T08:46:42.695Z,41.20
2018-04-22T08:47:41.535Z,42.10
2018-04-22T08:48:40.346Z,42.20
2018-04-22T08:49:39.022Z,42.20
2018-04-22T08:50:38.469Z,42.40
2018-04-22T08:51:37.079Z,42.30
2018-04-22T08:52:35.823Z,42.10
2018-04-22T08:53:34.696Z,41.90
2018-04-22T08:54:34.056Z,42.00
2018-04-22T08:55:33.657Z,42.00
2018-04-22T08:56:32.358Z,41.90
2018-04-22T08:57:31.188Z,41.90
2018-04-22T08:58:29.992Z,41.90
2018-04-22T08:59:29.109Z,41.90
2018-04-22T09:00:27.933Z,41.60
2018-04-22T09:01:26.722Z,41.40
2018-04-22T09:02:25.828Z,41.40
2018-04-22T09:03:25.097Z,41.50
2018-04-22T09:04:23.747Z,41.60
2018-04-22T09:05:22.464Z,41.70
2018-04-22T09:06:21.273Z,41.60
2018-04-22T09:07:20.895Z,41.40
2018-04-22T09:08:19.601Z,41.40
2018-04-22T09:09:18.447Z,41.40
2018-04-22T09:10:17.180Z,41.30
2018-04-22T09:11:16.782Z,41.80
2018-04-22T09:12:15.641Z,41.20
2018-04-22T09:13:14.475Z,41.20
2018-04-22T09:14:13.296Z,41.20
2018-04-22T09:15:12.024Z,41.20
2018-04-22T09:16:10.856Z,41.10
2018-04-22T09:17:10.494Z,41.10
2018-04-22T09:18:09.262Z,41.00
2018-04-22T09:19:08.877Z,41.00
2018-04-22T09:20:07.526Z,40.90
2018-04-22T09:21:06.379Z,41.00
2018-04-22T09:22:05.091Z,40.90
2018-04-22T09:23:03.992Z,40.90
2018-04-22T09:24:02.782Z,40.90
2018-04-22T09:25:01.520Z,40.90
2018-04-22T09:26:00.986Z,40.90
2018-04-22T09:26:59.864Z,40.90
2018-04-22T09:27:58.749Z,40.90
2018-04-22T09:28:57.459Z,40.90
2018-04-22T09:29:56.231Z,40.90
2018-04-22T09:30:55.809Z,40.80
2018-04-22T09:31:55.401Z,40.70
2018-04-22T09:32:55.017Z,40.70
2018-04-22T09:33:53.798Z,40.70
2018-04-22T09:34:52.609Z,40.70
2018-04-22T09:35:52.068Z,40.60
2018-04-22T09:36:51.662Z,40.60
2018-04-22T09:37:50.491Z,40.60
2018-04-22T09:38:49.259Z,40.60
2018-04-22T09:39:47.997Z,40.60
2018-04-22T09:40:46.842Z,40.60
2018-04-22T09:41:45.646Z,40.70
2018-04-22T09:42:45.262Z,40.80
2018-04-22T09:43:44.842Z,41.00
2018-04-22T09:44:43.518Z,41.00
2018-04-22T09:45:42.367Z,40.90
2018-04-22T09:46:41.297Z,40.90
2018-04-22T09:47:40.047Z,40.90
2018-04-22T09:48:39.469Z,41.00
2018-04-22T09:49:38.138Z,41.00
2018-04-22T09:50:36.804Z,41.00
2018-04-22T19:16:17.365Z,36.50
2018-04-22T19:17:17.004Z,37.20
2018-04-22T19:18:18.070Z,36.00
2018-04-22T19:20:12.366Z,34.50
2018-04-22T19:21:10.996Z,34.80
